CW7977 Corfu GR current weather conditions

sailwx.info

Wind from 225

Air temperature 10.6° C
Dewpoint 7.8° C

Last reported at 2014-Nov-25 23:37 UTC.
Time now 2014-Nov-26 00:27 UTC

Location: N 39°37' E 019°54'.
View on Google Maps.

See reports from other nearby stations

  
Tides and Currents Weather Stations Pressure Air Temp Water Temp Dewpoint Dewpoint Depression Visibility Wind Speed Wind Dir Waves Ship Positions
date/time (UTC)wind fromknots sea level pressurealtimeterstation pressurevisibilityair tempwater tempwave heightnotes
2014-Nov-25 23:37 225 10.6
2014-Nov-25 23:27 248 10.6
2014-Nov-25 23:17 248 11.1
2014-Nov-25 22:57 239 0 gusting 2 11.1
2014-Nov-25 22:47 225 0 gusting 1 11.1
2014-Nov-25 22:27 346 11.1
2014-Nov-25 22:17 338 10.6
2014-Nov-25 21:57 248 10.6
2014-Nov-25 21:47 248 10.6
2014-Nov-25 21:27 248 10.6
2014-Nov-25 21:17 248 0 gusting 1 10.6
2014-Nov-25 20:57 234 10.6
2014-Nov-25 20:47 225 10.6
2014-Nov-25 20:27 248 10.6
2014-Nov-25 20:17 248 10.6
2014-Nov-25 19:57 248 10.6
2014-Nov-25 19:47 248 10.6
2014-Nov-25 19:37 225 10.6
2014-Nov-25 19:27 225 11.1
2014-Nov-25 19:17 248 11.1
2014-Nov-25 19:07 248 11.1
2014-Nov-25 18:57 248 11.1
2014-Nov-25 18:47 248 11.1
2014-Nov-25 18:27 248 11.1
2014-Nov-25 18:17 225 11.7
2014-Nov-25 17:57 225 0 gusting 1 11.7
2014-Nov-25 17:47 226 11.7
2014-Nov-25 17:37 248 0 gusting 0 12.2
2014-Nov-25 17:27 248 12.2
2014-Nov-25 17:17 248 12.2
2014-Nov-25 17:07 248 12.8
2014-Nov-25 16:57 225 0 gusting 2 12.8
2014-Nov-25 16:47 225 0 gusting 2 12.8
2014-Nov-25 16:37 225 12.8
2014-Nov-25 16:27 225 0 gusting 1 13.3
2014-Nov-25 16:17 225 13.3
2014-Nov-25 16:07 225 13.3
2014-Nov-25 15:57 225 13.3
2014-Nov-25 15:47 225 13.9
2014-Nov-25 15:37 225 14.4
2014-Nov-25 15:27 225 14.4
2014-Nov-25 15:17 225 15.0
2014-Nov-25 15:07 225 0 gusting 2 15.0
2014-Nov-25 14:57 225 0 gusting 1 15.6
2014-Nov-25 14:47 225 1 gusting 2 15.6
2014-Nov-25 14:27 224 2 gusting 6 16.1
2014-Nov-25 14:17 182 1 gusting 4 16.1
2014-Nov-25 13:57 168 1 gusting 4 16.1
2014-Nov-25 13:47 209 1 gusting 6 16.1
2014-Nov-25 13:27 150 1 gusting 4 16.1
2014-Nov-25 13:17 158 1 gusting 5 16.1
2014-Nov-25 12:57 160 1 gusting 5 16.1
2014-Nov-25 12:47 145 1 gusting 4 16.1
2014-Nov-25 12:27 158 3 gusting 6 16.1
2014-Nov-25 12:17 132 3 gusting 6 16.1
2014-Nov-25 11:57 156 2 gusting 5 16.1
2014-Nov-25 11:47 136 3 gusting 6 16.1
2014-Nov-25 11:27 159 1 gusting 6 16.1
2014-Nov-25 11:17 139 2 gusting 6 16.1
2014-Nov-25 10:57 158 2 gusting 6 16.1
2014-Nov-25 10:37 158 2 gusting 6 16.1
2014-Nov-25 10:27 135 4 gusting 7 16.1
2014-Nov-25 10:17 138 3 gusting 6 16.1
2014-Nov-25 09:57 142 4 gusting 6 16.1
2014-Nov-25 09:47 135 4 gusting 7 15.6
2014-Nov-25 09:27 145 4 gusting 7 15.0
2014-Nov-25 09:17 135 6 gusting 10 15.0
2014-Nov-25 08:57 129 2 gusting 7 15.0
2014-Nov-25 08:47 122 1 gusting 5 14.4
2014-Nov-25 08:27 110 4 gusting 7 14.4
2014-Nov-25 08:17 112 2 gusting 6 14.4
2014-Nov-25 07:57 102 0 gusting 7 13.9
2014-Nov-25 07:47 107 2 gusting 6 13.9
2014-Nov-25 07:27 096 2 gusting 6 13.9
2014-Nov-25 07:17 112 0 gusting 6 13.3
2014-Nov-25 06:57 087 2 gusting 6 13.3
2014-Nov-25 05:47 121 0 gusting 5 12.2
2014-Nov-25 05:27 115 2 gusting 7 12.2
2014-Nov-25 05:17 140 1 gusting 6 12.2
2014-Nov-25 04:57 116 1 gusting 6 11.7
2014-Nov-25 04:47 128 1 gusting 6 11.1
2014-Nov-25 04:27 142 2 gusting 7 10.6
2014-Nov-25 04:17 151 1 gusting 4 10.0
2014-Nov-25 03:57 270 0 gusting 2 10.6
2014-Nov-25 03:47 225 0 gusting 2 10.6
2014-Nov-25 03:27 068 9.4
2014-Nov-25 03:17 101 9.4
2014-Nov-25 02:57 270 8.9
2014-Nov-25 02:47 270 8.9
2014-Nov-25 02:27 270 9.4
2014-Nov-25 02:17 225 9.4
2014-Nov-25 01:57 248 0 gusting 2 9.4
2014-Nov-25 01:47 246 0 gusting 1 9.4
2014-Nov-25 01:27 202 9.4
2014-Nov-25 01:17 248 9.4
2014-Nov-25 00:57 338 10.0
2014-Nov-25 00:47 9.4
2014-Nov-25 00:27 270 9.4
2014-Nov-25 00:17 248 9.4
2014-Nov-24 23:57 270 10.0
2014-Nov-24 23:47 238 0 gusting 0 10.0
2014-Nov-24 23:27 256 9.4
2014-Nov-24 23:17 292 9.4
2014-Nov-24 22:57 257 9.4
2014-Nov-24 22:47 258 0 gusting 1 10.0
2014-Nov-24 22:17 241 1 gusting 2 10.0
2014-Nov-24 21:57 248 10.0
2014-Nov-24 21:47 248 10.0
2014-Nov-24 21:27 244 0 gusting 1 10.6
2014-Nov-24 21:17 270 10.6
2014-Nov-24 20:57 338 10.6
2014-Nov-24 20:47 338 10.6
2014-Nov-24 20:27 315 10.6
2014-Nov-24 20:17 225 10.6
2014-Nov-24 19:57 225 11.1
2014-Nov-24 19:47 225 11.1
2014-Nov-24 19:27 248 11.1
2014-Nov-24 19:17 248 11.1
2014-Nov-24 18:57 240 0 gusting 2 11.7
2014-Nov-24 18:47 248 11.7
2014-Nov-24 18:27 248 11.7
2014-Nov-24 18:17 248 12.2
2014-Nov-24 17:57 225 0 gusting 1 12.2
2014-Nov-24 17:47 202 12.2
2014-Nov-24 17:17 248 12.8
2014-Nov-24 16:57 248 13.3
2014-Nov-24 16:47 248 13.3
2014-Nov-24 16:27 271 13.9
2014-Nov-24 16:17 090 13.9
2014-Nov-24 15:57 090 14.4
2014-Nov-24 15:47 045 14.4
2014-Nov-24 15:27 068 15.0
2014-Nov-24 15:17 045 15.0
2014-Nov-24 14:57 045 15.6
2014-Nov-24 14:47 043 0 gusting 2 15.0
2014-Nov-24 14:27 045 15.0
2014-Nov-24 14:17 039 0 gusting 1 15.0
2014-Nov-24 13:57 090 15.0
2014-Nov-24 13:47 045 15.0
2014-Nov-24 13:27 135 0 gusting 1 15.6
2014-Nov-24 12:57 132 15.6
2014-Nov-24 12:47 135 0 gusting 2 15.6
2014-Nov-24 12:27 135 1 gusting 4 16.1
2014-Nov-24 12:17 132 1 gusting 2 16.1
2014-Nov-24 11:57 117 1 gusting 4 16.1
2014-Nov-24 11:47 129 2 gusting 5 16.1
2014-Nov-24 11:27 125 1 gusting 5 16.1
2014-Nov-24 11:17 159 1 gusting 6 16.1
2014-Nov-24 10:57 100 0 gusting 6 16.1
2014-Nov-24 10:47 114 0 gusting 6 16.1
2014-Nov-24 10:27 148 2 gusting 6 16.1
2014-Nov-24 10:17 162 2 gusting 6 16.1
2014-Nov-24 09:57 115 0 gusting 4 15.6
2014-Nov-24 09:47 127 1 gusting 4 15.6
2014-Nov-24 08:07 225 12.2
2014-Nov-24 07:57 211 0 gusting 0 12.2
2014-Nov-24 07:47 225 11.7
2014-Nov-24 07:27 315 11.1
2014-Nov-24 07:17 305 10.6
2014-Nov-24 06:57 225 9.4
2014-Nov-24 06:47 236 9.4
2014-Nov-24 06:27 248 8.9
2014-Nov-24 06:17 248 8.3
2014-Nov-24 05:57 225 0 gusting 2 8.3
2014-Nov-24 05:47 248 0 gusting 2 8.3
2014-Nov-24 05:27 248 8.3
2014-Nov-24 05:17 252 8.3
2014-Nov-24 04:57 239 8.3
2014-Nov-24 04:47 248 8.3
2014-Nov-24 04:27 248 8.3
2014-Nov-24 04:17 235 0 gusting 4 8.3
2014-Nov-24 03:57 248 8.3
2014-Nov-24 03:47 243 8.3
2014-Nov-24 03:27 237 0 gusting 4 8.3
2014-Nov-24 03:17 248 0 gusting 5 8.3
2014-Nov-24 02:47 248 8.3
2014-Nov-24 02:17 236 0 gusting 1 8.3
2014-Nov-24 01:57 231 8.3
2014-Nov-24 01:47 248 8.3
2014-Nov-24 01:27 225 8.3
2014-Nov-24 01:17 225 8.3
2014-Nov-24 00:57 235 0 gusting 1 8.3
2014-Nov-24 00:47 248 8.3
2014-Nov-24 00:27 246 8.9
2014-Nov-24 00:17 248 0 gusting 2 8.9